Time;durP1;ratioP1;P1;durP2;ratioP2;P2;SDS_P1;SDS_P2;PMS_P1;PMS_P2;Temp;Humidity;BMP_temperature;BMP_pressure;BME280_temperature;BME280_humidity;BME280_pressure;Samples;Min_cycle;Max_cycle;Signal;HPM_P1;HPM_P2
2023/08/09 00:01:48;;;;;;;;;3.67;2.67;;;;;21.24;54.36;101297.09;5084459;27;67033;-48
2023/08/09 00:04:13;;;;;;;;;4.33;4.33;;;;;21.24;54.37;101294.38;5074222;27;73541;-51
2023/08/09 00:06:38;;;;;;;;;3.25;2.00;;;;;21.25;54.11;101289.81;5091491;27;55219;-49
2023/08/09 00:09:04;;;;;;;;;3.00;2.00;;;;;21.24;54.33;101280.84;5094629;27;45361;-48
2023/08/09 00:11:29;;;;;;;;;2.00;2.00;;;;;21.23;54.09;101278.28;5090468;27;45300;-51
2023/08/09 00:13:55;;;;;;;;;2.00;2.00;;;;;21.19;54.74;101277.69;5093043;27;70346;-51
2023/08/09 00:16:20;;;;;;;;;3.67;2.00;;;;;21.17;54.66;101287.78;5069898;27;45427;-49
2023/08/09 00:18:45;;;;;;;;;5.00;3.00;;;;;21.14;54.93;101291.59;5099779;27;45478;-47
2023/08/09 00:21:11;;;;;;;;;5.00;2.00;;;;;21.13;54.64;101294.44;5094062;27;67223;-50
2023/08/09 00:23:36;;;;;;;;;2.33;2.33;;;;;21.08;55.50;101299.41;5089966;27;46776;-48
2023/08/09 00:26:01;;;;;;;;;3.00;2.00;;;;;21.07;54.91;101303.13;5065281;27;72108;-47
2023/08/09 00:28:27;;;;;;;;;2.67;2.67;;;;;21.04;55.22;101297.97;5096290;27;61138;-48
2023/08/09 00:30:52;;;;;;;;;5.00;4.00;;;;;21.02;55.30;101299.97;5088915;27;50068;-49
2023/08/09 00:33:17;;;;;;;;;2.33;2.00;;;;;20.96;55.15;101296.78;5094502;27;71063;-49
2023/08/09 00:35:43;;;;;;;;;2.33;2.33;;;;;20.94;54.73;101300.63;5097800;27;52677;-49
2023/08/09 00:38:08;;;;;;;;;4.00;3.00;;;;;20.92;55.77;101305.28;5090367;27;64736;-50
2023/08/09 00:40:33;;;;;;;;;2.33;2.33;;;;;20.89;56.05;101303.69;5092217;27;45441;-51
2023/08/09 00:42:59;;;;;;;;;2.67;2.67;;;;;20.87;55.47;101300.28;5090407;27;52058;-48
2023/08/09 00:45:24;;;;;;;;;4.00;2.00;;;;;20.88;55.13;101304.69;5093053;27;68623;-50
2023/08/09 00:47:49;;;;;;;;;1.50;1.50;;;;;20.91;55.93;101287.34;5084912;27;69422;-47
2023/08/09 00:50:15;;;;;;;;;2.75;2.75;;;;;20.93;55.22;101285.38;5076571;27;65404;-48
2023/08/09 00:52:40;;;;;;;;;2.00;2.00;;;;;20.95;56.12;101280.69;5095363;27;72492;-50
2023/08/09 00:55:06;;;;;;;;;2.00;2.00;;;;;20.97;55.32;101273.31;5079503;27;71673;-49
2023/08/09 00:57:32;;;;;;;;;3.75;1.00;;;;;20.96;55.56;101277.00;5094627;27;45457;-49
2023/08/09 00:59:57;;;;;;;;;3.75;2.00;;;;;20.96;55.59;101285.09;5083105;27;45593;-49
2023/08/09 01:02:23;;;;;;;;;3.00;3.00;;;;;20.97;56.05;101293.06;5094339;27;45399;-49
2023/08/09 01:04:49;;;;;;;;;1.75;1.75;;;;;21.00;55.56;101286.53;5070751;27;47041;-52
2023/08/09 01:07:20;;;;;;;;;2.50;2.50;;;;;21.02;55.47;101298.09;5071231;28;61139;-52
2023/08/09 01:10:10;;;;;;;;;2.00;2.00;;;;;21.03;55.49;101293.53;5072332;27;45484;-49
2023/08/09 01:12:41;;;;;;;;;2.00;2.00;;;;;21.02;55.33;101294.53;5089907;27;46367;-51
2023/08/09 01:15:08;;;;;;;;;4.00;2.67;;;;;21.00;55.67;101294.66;5057361;27;45623;-49
2023/08/09 01:17:34;;;;;;;;;3.00;2.00;;;;;20.99;55.47;101301.06;5090852;27;45301;-49
2023/08/09 01:20:00;;;;;;;;;2.00;2.00;;;;;20.95;55.96;101303.19;5095476;27;45457;-48
2023/08/09 01:22:33;;;;;;;;;2.00;2.00;;;;;20.90;56.31;101302.72;5085233;27;71336;-49
2023/08/09 01:25:03;;;;;;;;;2.00;2.00;;;;;20.87;56.25;101297.59;5084371;27;45439;-49
2023/08/09 01:27:31;;;;;;;;;2.00;2.00;;;;;20.86;55.58;101300.41;5086657;27;45489;-52
2023/08/09 01:29:56;;;;;;;;;2.00;2.00;;;;;20.80;57.02;101302.63;5096865;27;62962;-50
2023/08/09 01:32:24;;;;;;;;;3.00;2.00;;;;;20.76;56.29;101309.31;5089224;27;47063;-50
2023/08/09 01:34:50;;;;;;;;;3.00;3.00;;;;;20.73;56.55;101298.75;5095004;27;45347;-48
2023/08/09 01:37:23;;;;;;;;;2.00;2.00;;;;;20.71;56.12;101310.69;5096040;27;66196;-49
2023/08/09 01:39:50;;;;;;;;;3.67;2.00;;;;;20.66;57.00;101314.63;5079874;27;45348;-50
2023/08/09 01:42:16;;;;;;;;;2.00;2.00;;;;;20.62;57.33;101310.47;5066281;27;46605;-50
2023/08/09 01:44:41;;;;;;;;;3.00;3.00;;;;;20.61;57.13;101314.16;5075820;27;69981;-51
2023/08/09 01:47:07;;;;;;;;;2.33;2.33;;;;;20.59;57.62;101313.41;5084040;27;65615;-48
2023/08/09 01:49:33;;;;;;;;;4.00;2.00;;;;;20.55;57.97;101303.00;5073224;27;45604;-47
2023/08/09 01:51:58;;;;;;;;;3.00;3.00;;;;;20.53;58.63;101316.63;5084546;27;45966;-51
2023/08/09 01:54:24;;;;;;;;;3.33;3.00;;;;;20.55;58.13;101305.72;5086063;27;71758;-48
2023/08/09 01:56:49;;;;;;;;;2.33;2.33;;;;;20.55;58.20;101306.56;5092478;27;45745;-51
2023/08/09 01:59:14;;;;;;;;;2.67;2.67;;;;;20.52;58.38;101309.53;5093614;27;45799;-49
2023/08/09 02:01:40;;;;;;;;;4.00;2.33;;;;;20.54;58.45;101307.53;5068785;27;46162;-52
2023/08/09 02:04:09;;;;;;;;;3.00;3.00;;;;;20.56;58.83;101315.50;5083112;27;45432;-50
2023/08/09 02:06:35;;;;;;;;;3.00;2.00;;;;;20.57;58.45;101320.81;5097739;27;45334;-51
2023/08/09 02:09:01;;;;;;;;;2.00;2.00;;;;;20.56;58.87;101305.56;5085239;27;45334;-47
2023/08/09 02:11:26;;;;;;;;;2.33;2.00;;;;;20.55;58.54;101311.97;5084395;27;46219;-48
2023/08/09 02:13:52;;;;;;;;;3.00;2.00;;;;;20.54;59.37;101309.38;5093888;27;45438;-48
2023/08/09 02:16:18;;;;;;;;;2.00;2.00;;;;;20.54;59.17;101310.22;5091261;27;45293;-51
2023/08/09 02:18:43;;;;;;;;;2.00;2.00;;;;;20.56;59.17;101310.09;5088440;27;45260;-49
2023/08/09 02:21:10;;;;;;;;;2.00;2.00;;;;;20.59;59.44;101308.00;5090753;27;46316;-49
2023/08/09 02:23:37;;;;;;;;;2.00;2.00;;;;;20.60;59.65;101301.63;5068368;28;45595;-49
2023/08/09 02:26:03;;;;;;;;;4.00;2.67;;;;;20.60;60.13;101301.63;5083840;27;45364;-48
2023/08/09 02:28:28;;;;;;;;;2.00;2.00;;;;;20.61;58.89;101294.34;5088773;27;45368;-51
2023/08/09 02:30:53;;;;;;;;;1.00;1.00;;;;;20.59;59.86;101293.66;5099070;27;72308;-51
2023/08/09 02:33:19;;;;;;;;;1.75;1.75;;;;;20.55;59.63;101300.31;5089023;27;69023;-48
2023/08/09 02:35:56;;;;;;;;;3.00;2.00;;;;;20.47;59.69;101300.94;5081389;27;45292;-52
2023/08/09 02:38:22;;;;;;;;;3.25;2.50;;;;;20.41;59.91;101306.84;5096587;27;45486;-50
2023/08/09 02:40:49;;;;;;;;;1.00;1.00;;;;;20.33;60.76;101302.94;5094970;27;46232;-51
2023/08/09 02:43:21;;;;;;;;;1.33;1.33;;;;;20.27;60.11;101305.31;5091209;27;45330;-52
2023/08/09 02:45:46;;;;;;;;;2.33;1.00;;;;;20.17;60.87;101310.63;5078973;27;45397;-51
2023/08/09 02:48:13;;;;;;;;;3.00;1.00;;;;;20.12;60.93;101312.84;5093372;27;62746;-50
2023/08/09 02:50:39;;;;;;;;;1.00;1.00;;;;;20.06;60.39;101314.19;5089447;27;45304;-49
2023/08/09 02:53:05;;;;;;;;;4.00;2.00;;;;;19.99;60.42;101313.00;5089891;27;45753;-50
2023/08/09 02:55:31;;;;;;;;;5.75;2.00;;;;;19.93;60.46;101311.66;5091575;27;45462;-48
2023/08/09 02:57:57;;;;;;;;;1.00;1.00;;;;;19.90;61.40;101316.44;5092669;27;45343;-50
2023/08/09 03:00:22;;;;;;;;;2.00;2.00;;;;;19.90;61.75;101306.50;5087137;27;45997;-51
2023/08/09 03:02:49;;;;;;;;;2.00;2.00;;;;;19.92;61.66;101314.47;5084505;27;68097;-49
2023/08/09 03:05:14;;;;;;;;;3.67;2.00;;;;;19.94;61.90;101318.75;5088374;27;45628;-50
2023/08/09 03:07:41;;;;;;;;;2.00;1.00;;;;;19.96;61.87;101308.72;5099428;27;45297;-51
2023/08/09 03:10:07;;;;;;;;;1.00;1.00;;;;;19.98;61.99;101306.72;5091537;27;46345;-50
2023/08/09 03:12:33;;;;;;;;;1.00;1.00;;;;;20.00;61.70;101318.25;5095796;27;45440;-50
2023/08/09 03:14:58;;;;;;;;;1.33;1.33;;;;;20.03;61.45;101321.72;5089873;27;45346;-48
2023/08/09 03:17:23;;;;;;;;;1.00;1.00;;;;;20.04;61.54;101328.81;5095567;27;69570;-49
2023/08/09 03:19:49;;;;;;;;;1.00;1.00;;;;;20.03;62.12;101335.22;5085751;27;73564;-49
2023/08/09 03:22:15;;;;;;;;;1.33;1.33;;;;;20.01;62.05;101338.00;5094443;27;45350;-49
2023/08/09 03:24:41;;;;;;;;;1.00;1.00;;;;;20.03;62.52;101340.59;5084385;27;45449;-48
2023/08/09 03:27:06;;;;;;;;;1.33;1.33;;;;;20.05;61.95;101336.81;5081365;27;58281;-48
2023/08/09 03:29:31;;;;;;;;;1.67;1.00;;;;;20.06;62.25;101337.66;5069485;27;54433;-50
2023/08/09 03:31:57;;;;;;;;;1.33;1.33;;;;;20.07;62.45;101334.81;5067010;27;45749;-48
2023/08/09 03:34:22;;;;;;;;;2.00;1.67;;;;;20.06;62.85;101334.94;5097050;27;60981;-52
2023/08/09 03:36:47;;;;;;;;;1.00;1.00;;;;;20.08;63.13;101327.59;5090023;27;64129;-51
2023/08/09 03:39:14;;;;;;;;;1.25;1.00;;;;;20.11;62.05;101330.03;5083688;27;46405;-49
2023/08/09 03:41:40;;;;;;;;;3.33;2.00;;;;;20.11;63.20;101335.44;5099859;27;45405;-48
2023/08/09 03:44:06;;;;;;;;;0.00;0.00;;;;;20.08;62.67;101339.25;5083930;27;45383;-51
2023/08/09 03:46:32;;;;;;;;;1.33;1.33;;;;;20.08;62.04;101338.38;5082138;27;45387;-48
2023/08/09 03:48:57;;;;;;;;;2.00;1.00;;;;;20.05;63.35;101333.22;5093549;27;45839;-48
2023/08/09 03:51:22;;;;;;;;;1.00;1.00;;;;;20.05;62.77;101338.63;5083254;27;67105;-49
2023/08/09 03:53:48;;;;;;;;;1.00;1.00;;;;;20.06;63.54;101351.16;5086475;27;59143;-51
2023/08/09 03:56:13;;;;;;;;;1.00;1.00;;;;;20.05;63.16;101344.91;5094672;27;66761;-51
2023/08/09 03:58:38;;;;;;;;;1.00;1.00;;;;;20.03;63.27;101348.72;5085292;27;71622;-50
2023/08/09 04:01:04;;;;;;;;;2.25;1.00;;;;;20.00;63.71;101352.50;5090390;27;54578;-49
2023/08/09 04:03:29;;;;;;;;;2.00;2.00;;;;;19.98;64.02;101358.00;5089339;27;69158;-49
2023/08/09 04:05:55;;;;;;;;;1.33;0.00;;;;;20.00;63.20;101353.34;5090592;27;59314;-50
2023/08/09 04:08:21;;;;;;;;;1.33;1.00;;;;;19.99;64.01;101354.34;5090815;27;45574;-51
2023/08/09 04:10:47;;;;;;;;;1.50;1.00;;;;;19.98;64.38;101355.31;5094323;27;45413;-52
2023/08/09 04:13:12;;;;;;;;;2.33;2.00;;;;;19.96;64.43;101368.09;5099637;27;45406;-49
2023/08/09 04:15:38;;;;;;;;;2.00;1.00;;;;;19.98;63.44;101365.25;5091208;27;64670;-51
2023/08/09 04:18:03;;;;;;;;;1.00;1.00;;;;;19.95;63.78;101370.94;5088666;27;46915;-51
2023/08/09 04:20:31;;;;;;;;;0.00;0.00;;;;;19.91;64.71;101375.72;5099696;27;45465;-48
2023/08/09 04:22:56;;;;;;;;;1.00;1.00;;;;;19.91;64.80;101378.41;5088607;27;45469;-49
2023/08/09 04:25:22;;;;;;;;;1.00;1.00;;;;;19.95;65.17;101376.31;5097110;27;45349;-48
2023/08/09 04:27:48;;;;;;;;;1.00;1.00;;;;;19.98;64.87;101384.16;5091872;27;64740;-49
2023/08/09 04:30:14;;;;;;;;;1.50;1.50;;;;;20.02;64.90;101387.47;5085845;27;45962;-49
2023/08/09 04:32:39;;;;;;;;;2.00;2.00;;;;;20.03;64.69;101384.66;5097748;27;45354;-51
2023/08/09 04:35:05;;;;;;;;;1.00;1.00;;;;;20.05;64.67;101385.41;5090911;27;45639;-50
2023/08/09 04:37:31;;;;;;;;;1.00;1.00;;;;;20.05;64.49;101377.31;5082362;27;46064;-50
2023/08/09 04:39:57;;;;;;;;;1.00;1.00;;;;;20.07;65.30;101378.00;5099168;27;45388;-49
2023/08/09 04:42:22;;;;;;;;;1.00;1.00;;;;;20.09;65.13;101389.56;5095573;27;45391;-47
2023/08/09 04:44:48;;;;;;;;;4.00;2.00;;;;;20.09;64.65;101389.56;5095333;27;45567;-48
2023/08/09 04:47:14;;;;;;;;;1.00;1.00;;;;;20.10;64.57;101393.97;5094878;27;46081;-49
2023/08/09 04:49:39;;;;;;;;;1.00;1.00;;;;;20.09;64.26;101377.88;5089057;27;45375;-48
2023/08/09 04:52:05;;;;;;;;;1.00;1.00;;;;;20.07;65.44;101387.97;5067059;27;45484;-49
2023/08/09 04:54:31;;;;;;;;;1.00;1.00;;;;;20.06;64.22;101394.34;5093214;27;45405;-50
2023/08/09 04:56:56;;;;;;;;;0.33;0.00;;;;;20.03;64.97;101400.00;5097295;27;47265;-49
2023/08/09 04:59:22;;;;;;;;;1.75;0.75;;;;;20.03;64.88;101410.81;5097215;27;57713;-52
2023/08/09 05:01:47;;;;;;;;;2.25;0.75;;;;;20.01;65.46;101405.50;5074796;27;45485;-51
2023/08/09 05:04:12;;;;;;;;;0.50;0.50;;;;;20.00;64.97;101396.56;5077828;27;45433;-47
2023/08/09 05:06:39;;;;;;;;;1.00;1.00;;;;;20.04;65.77;101393.59;5097312;27;45823;-47
2023/08/09 05:09:05;;;;;;;;;1.00;1.00;;;;;20.07;65.24;101398.78;5074336;27;45751;-50
2023/08/09 05:11:31;;;;;;;;;1.00;1.00;;;;;20.09;65.35;101403.06;5075597;27;45500;-49
2023/08/09 05:13:56;;;;;;;;;1.25;0.25;;;;;20.13;65.16;101400.97;5093551;27;45381;-49
2023/08/09 05:16:24;;;;;;;;;0.00;0.00;;;;;20.13;64.34;101403.69;5089531;27;61754;-48
2023/08/09 05:18:50;;;;;;;;;3.00;0.00;;;;;20.11;64.99;101398.38;5095292;27;45571;-48
2023/08/09 05:21:15;;;;;;;;;0.00;0.00;;;;;20.13;65.27;101401.81;5092733;27;45445;-47
2023/08/09 05:23:41;;;;;;;;;1.33;0.00;;;;;20.15;65.11;101405.28;5089104;27;66411;-48
2023/08/09 05:26:06;;;;;;;;;0.00;0.00;;;;;20.20;64.27;101401.34;5091389;27;62581;-47
2023/08/09 05:28:31;;;;;;;;;0.00;0.00;;;;;20.20;65.59;101398.63;5091243;27;70053;-48
2023/08/09 05:30:56;;;;;;;;;1.00;0.00;;;;;20.20;65.01;101399.47;5092207;27;64617;-50
2023/08/09 05:33:22;;;;;;;;;1.00;0.00;;;;;20.14;65.15;101408.06;5075602;27;45328;-48
2023/08/09 05:35:47;;;;;;;;;0.00;0.00;;;;;20.08;65.60;101414.84;5091213;27;65280;-48
2023/08/09 05:38:12;;;;;;;;;0.75;0.75;;;;;20.05;65.87;101411.53;5096983;27;52084;-50
2023/08/09 05:40:38;;;;;;;;;0.00;0.00;;;;;20.04;66.02;101418.78;5089540;27;51792;-48
2023/08/09 05:43:03;;;;;;;;;0.00;0.00;;;;;20.06;65.49;101432.16;5096278;27;68950;-49
2023/08/09 05:45:29;;;;;;;;;0.00;0.00;;;;;20.02;66.15;101425.28;5095259;27;54861;-53
2023/08/09 05:47:54;;;;;;;;;0.00;0.00;;;;;20.05;66.61;101419.63;5067682;28;45468;-52
2023/08/09 05:50:19;;;;;;;;;0.25;0.00;;;;;20.14;65.83;101421.56;5098148;27;45552;-49
2023/08/09 05:52:45;;;;;;;;;1.00;0.00;;;;;20.24;66.02;101419.84;5090994;27;45281;-52
2023/08/09 05:55:10;;;;;;;;;1.00;1.00;;;;;20.39;65.26;101415.06;5092345;27;68623;-52
2023/08/09 05:57:36;;;;;;;;;0.00;0.00;;;;;20.49;65.54;101412.44;5082011;27;45349;-52
2023/08/09 06:00:04;;;;;;;;;0.00;0.00;;;;;20.49;65.51;101418.72;5089867;27;45343;-50
2023/08/09 06:02:33;;;;;;;;;0.00;0.00;;;;;20.50;65.13;101423.09;5095685;27;45409;-49
2023/08/09 06:04:58;;;;;;;;;0.00;0.00;;;;;20.48;64.79;101429.63;5058449;27;46424;-52
2023/08/09 06:07:24;;;;;;;;;0.00;0.00;;;;;20.44;65.79;101425.47;5098754;27;45720;-49
2023/08/09 06:09:49;;;;;;;;;1.67;0.67;;;;;20.42;65.59;101422.88;5086450;27;52654;-52
2023/08/09 06:12:14;;;;;;;;;0.33;0.33;;;;;20.41;65.44;101418.47;5090193;27;58840;-49
2023/08/09 06:14:40;;;;;;;;;0.00;0.00;;;;;20.39;65.65;101427.69;5079608;27;58324;-52
2023/08/09 06:17:05;;;;;;;;;0.00;0.00;;;;;20.37;66.03;101429.66;5081930;27;69346;-51
2023/08/09 06:19:32;;;;;;;;;0.00;0.00;;;;;20.32;66.53;101436.31;5089009;27;45420;-50
2023/08/09 06:21:58;;;;;;;;;1.00;1.00;;;;;20.29;67.09;101436.53;5092815;27;45488;-49
2023/08/09 06:24:24;;;;;;;;;0.67;0.67;;;;;20.27;67.00;101440.34;5074405;27;46626;-52
2023/08/09 06:26:49;;;;;;;;;1.00;1.00;;;;;20.21;66.81;101440.84;5090632;27;45430;-49
2023/08/09 06:29:15;;;;;;;;;0.00;0.00;;;;;20.18;67.91;101441.97;5077786;27;45824;-49
2023/08/09 06:31:41;;;;;;;;;2.00;0.25;;;;;20.17;67.54;101451.06;5081935;27;45519;-49
2023/08/09 06:34:08;;;;;;;;;1.00;1.00;;;;;20.17;68.55;101453.75;5070217;27;46339;-49
2023/08/09 06:36:34;;;;;;;;;1.00;1.00;;;;;20.21;68.39;101457.03;5094667;27;45501;-48
2023/08/09 06:38:59;;;;;;;;;1.00;1.00;;;;;20.30;69.19;101454.47;5090889;27;45596;-49
2023/08/09 06:41:25;;;;;;;;;4.00;1.00;;;;;20.42;68.16;101455.31;5095621;27;45335;-49
2023/08/09 06:43:50;;;;;;;;;1.75;1.00;;;;;20.57;67.88;101466.72;5096257;27;61690;-49
2023/08/09 06:46:15;;;;;;;;;0.67;0.00;;;;;20.64;67.84;101469.78;5095675;27;63133;-53
2023/08/09 06:48:41;;;;;;;;;1.00;1.00;;;;;20.64;67.77;101475.19;5079005;27;71145;-52
2023/08/09 06:51:06;;;;;;;;;1.00;0.67;;;;;20.60;67.64;101476.41;5085244;27;45392;-52
2023/08/09 06:53:31;;;;;;;;;0.75;0.50;;;;;20.64;68.02;101480.59;5074532;27;46069;-53
2023/08/09 06:55:57;;;;;;;;;0.00;0.00;;;;;20.66;67.95;101475.88;5096535;27;45463;-55
2023/08/09 06:58:22;;;;;;;;;2.33;1.00;;;;;20.71;67.13;101481.81;5099105;27;45424;-54
2023/08/09 07:00:48;;;;;;;;;1.00;1.00;;;;;20.80;67.09;101480.19;5082398;27;45406;-51
2023/08/09 07:03:14;;;;;;;;;0.00;0.00;;;;;20.94;66.48;101476.34;5086451;27;46061;-54
2023/08/09 07:05:41;;;;;;;;;2.33;1.00;;;;;21.07;66.00;101474.34;5086191;27;45652;-56
2023/08/09 07:08:06;;;;;;;;;1.00;1.00;;;;;21.18;65.08;101472.56;5091298;27;45399;-54
2023/08/09 07:10:31;;;;;;;;;1.67;1.67;;;;;21.25;65.47;101471.03;5096917;27;45402;-53
2023/08/09 07:12:57;;;;;;;;;2.00;1.00;;;;;21.32;64.56;101481.22;5095594;27;46038;-54
2023/08/09 07:15:22;;;;;;;;;1.00;1.00;;;;;21.31;63.96;101479.53;5095124;27;45312;-52
2023/08/09 07:17:47;;;;;;;;;2.00;2.00;;;;;21.21;64.35;101489.41;5072093;27;59032;-53
2023/08/09 07:20:14;;;;;;;;;1.00;1.00;;;;;21.05;64.24;101492.53;5087403;27;45501;-56
2023/08/09 07:22:43;;;;;;;;;2.00;2.00;;;;;21.05;64.38;101497.94;5097697;27;46212;-56
2023/08/09 07:25:10;;;;;;;;;2.00;0.50;;;;;21.22;64.86;101490.25;5090381;27;45502;-56
2023/08/09 07:27:47;;;;;;;;;0.50;0.50;;;;;21.48;64.26;101494.31;5094193;27;45467;-56
2023/08/09 07:30:14;;;;;;;;;2.00;2.00;;;;;21.74;63.91;101490.38;5084748;27;45318;-56
2023/08/09 07:32:40;;;;;;;;;1.00;1.00;;;;;21.90;63.10;101489.88;5099532;27;46364;-56
2023/08/09 07:35:06;;;;;;;;;1.00;1.00;;;;;21.95;62.22;101499.34;5088301;27;45493;-63
2023/08/09 07:37:33;;;;;;;;;1.00;1.00;;;;;21.93;62.05;101498.59;5098200;27;45376;-58
2023/08/09 07:39:58;;;;;;;;;1.00;1.00;;;;;21.96;62.61;101501.03;5091688;27;45446;-58
2023/08/09 07:42:24;;;;;;;;;1.00;1.00;;;;;22.10;62.05;101504.41;5091474;27;45574;-51
2023/08/09 07:44:49;;;;;;;;;1.00;1.00;;;;;22.21;61.49;101500.72;5092062;27;45757;-51
2023/08/09 07:47:15;;;;;;;;;1.00;1.00;;;;;22.21;61.35;101498.88;5085586;27;69407;-50
2023/08/09 07:49:40;;;;;;;;;0.00;0.00;;;;;22.26;61.12;101501.19;5091326;27;67339;-53
2023/08/09 07:52:06;;;;;;;;;0.33;0.33;;;;;22.54;61.23;101501.44;5086750;27;46221;-52
2023/08/09 07:54:31;;;;;;;;;1.33;1.33;;;;;23.07;59.90;101497.53;5092301;27;45324;-52
2023/08/09 07:56:56;;;;;;;;;3.67;1.33;;;;;23.58;59.08;101499.16;5088572;27;60692;-52
2023/08/09 07:59:22;;;;;;;;;0.25;0.25;;;;;23.93;57.89;101504.94;5079095;27;70190;-54
2023/08/09 08:01:48;;;;;;;;;1.00;1.00;;;;;24.20;56.54;101506.84;5083355;27;46230;-50
2023/08/09 08:04:14;;;;;;;;;1.00;1.00;;;;;24.89;56.81;101498.34;5092428;27;45485;-51
2023/08/09 08:06:39;;;;;;;;;0.50;0.50;;;;;26.32;52.72;101506.44;5091997;27;45663;-53
2023/08/09 08:09:04;;;;;;;;;1.00;1.00;;;;;27.18;52.00;101507.22;5073593;28;45304;-53
2023/08/09 08:11:30;;;;;;;;;1.00;1.00;;;;;27.11;50.62;101507.03;5064025;27;46026;-54
2023/08/09 08:13:55;;;;;;;;;2.00;2.00;;;;;26.46;50.06;101513.16;5098202;27;67011;-54
2023/08/09 08:16:21;;;;;;;;;2.75;1.00;;;;;25.85;51.41;101508.56;5082117;27;45443;-53
2023/08/09 08:18:46;;;;;;;;;0.50;0.25;;;;;25.43;51.59;101503.81;5086850;27;60484;-51
2023/08/09 08:21:11;;;;;;;;;1.00;0.25;;;;;25.26;52.09;101505.50;5081398;27;45685;-51
2023/08/09 08:23:37;;;;;;;;;2.00;1.00;;;;;25.36;52.69;101516.34;5078245;27;45419;-49
2023/08/09 08:26:02;;;;;;;;;1.00;0.00;;;;;25.78;52.58;101514.81;5078190;28;58827;-49
2023/08/09 08:28:27;;;;;;;;;2.00;1.00;;;;;26.78;50.53;101528.81;5084554;27;67097;-52
2023/08/09 08:30:53;;;;;;;;;1.00;0.00;;;;;27.55;48.40;101533.22;5086873;27;46229;-51
2023/08/09 08:33:18;;;;;;;;;2.00;0.00;;;;;27.54;48.07;101535.06;5082258;27;45374;-52
2023/08/09 08:35:48;;;;;;;;;0.00;0.00;;;;;27.34;48.42;101530.94;5084689;27;57767;-49
2023/08/09 08:38:13;;;;;;;;;0.25;0.25;;;;;27.50;48.06;101530.13;5088562;27;45445;-54
2023/08/09 08:40:39;;;;;;;;;0.00;0.00;;;;;27.89;47.39;101530.25;5090199;27;46668;-49
2023/08/09 08:43:08;;;;;;;;;0.00;0.00;;;;;28.76;46.58;101536.84;5068385;27;71545;-52
2023/08/09 08:45:38;;;;;;;;;0.00;0.00;;;;;28.82;45.45;101538.84;5087817;27;45686;-48
2023/08/09 08:48:07;;;;;;;;;0.00;0.00;;;;;28.90;45.42;101537.94;5072833;27;45908;-50
2023/08/09 08:50:33;;;;;;;;;0.00;0.00;;;;;28.78;44.63;101536.66;5081283;27;46276;-51
2023/08/09 08:52:59;;;;;;;;;1.00;1.00;;;;;28.70;44.50;101540.31;5085774;27;45560;-51
2023/08/09 08:55:24;;;;;;;;;0.50;0.50;;;;;29.46;44.54;101537.75;5083464;27;66702;-50
2023/08/09 08:57:50;;;;;;;;;0.25;0.00;;;;;29.45;43.32;101554.38;5088094;27;45456;-49
2023/08/09 09:00:16;;;;;;;;;0.00;0.00;;;;;28.82;42.90;101549.81;5079214;27;58852;-52
2023/08/09 09:02:46;;;;;;;;;0.75;0.75;;;;;27.99;44.26;101551.06;5088084;27;45386;-50
2023/08/09 09:05:16;;;;;;;;;0.25;0.25;;;;;27.40;44.75;101552.13;5067955;27;45645;-51
2023/08/09 09:07:42;;;;;;;;;0.50;0.50;;;;;27.83;45.35;101560.16;5077337;27;45521;-51
2023/08/09 09:10:12;;;;;;;;;1.75;1.00;;;;;29.05;44.09;101566.25;5083318;27;46159;-51
2023/08/09 09:12:38;;;;;;;;;0.25;0.25;;;;;29.89;42.63;101552.81;5080800;27;45647;-52
2023/08/09 09:15:05;;;;;;;;;0.00;0.00;;;;;31.94;41.05;101549.13;5074173;27;45438;-52
2023/08/09 09:17:38;;;;;;;;;1.00;1.00;;;;;34.46;37.33;101548.16;5090087;27;45593;-52
2023/08/09 09:20:08;;;;;;;;;1.00;1.00;;;;;35.13;36.40;101555.28;5091816;27;45499;-49
2023/08/09 09:22:35;;;;;;;;;1.00;0.00;;;;;34.98;34.40;101565.78;5081023;27;45926;-50
2023/08/09 09:25:03;;;;;;;;;1.00;1.00;;;;;35.59;33.69;101559.66;5080575;27;45388;-51
2023/08/09 09:27:31;;;;;;;;;0.25;0.00;;;;;34.86;33.03;101560.13;5053129;27;45621;-53
2023/08/09 09:30:04;;;;;;;;;0.00;0.00;;;;;33.66;33.59;101564.81;5071289;27;46914;-49
2023/08/09 09:32:31;;;;;;;;;0.00;0.00;;;;;32.30;34.95;101566.50;5095356;27;45482;-50
2023/08/09 09:34:57;;;;;;;;;0.00;0.00;;;;;31.22;37.09;101566.63;5090657;27;45440;-52
2023/08/09 09:37:25;;;;;;;;;3.00;2.25;;;;;30.35;38.30;101566.34;5079369;27;63088;-53
2023/08/09 09:39:51;;;;;;;;;1.00;1.00;;;;;29.44;38.89;101571.84;5083742;27;46311;-48
2023/08/09 09:42:17;;;;;;;;;0.00;0.00;;;;;28.66;40.11;101567.16;5088149;27;45935;-50
2023/08/09 09:44:43;;;;;;;;;0.50;0.50;;;;;28.06;40.58;101560.31;5086011;27;45506;-51
2023/08/09 09:47:10;;;;;;;;;1.00;1.00;;;;;27.59;41.63;101566.47;5087462;27;45390;-52
2023/08/09 09:49:36;;;;;;;;;2.00;2.00;;;;;27.19;42.36;101566.25;5068779;27;46365;-52
2023/08/09 09:52:05;;;;;;;;;2.00;2.00;;;;;26.95;42.71;101578.84;5086124;27;46029;-52
2023/08/09 09:54:31;;;;;;;;;2.00;0.25;;;;;26.84;42.74;101566.34;5079867;27;45489;-51
2023/08/09 09:56:58;;;;;;;;;1.25;1.25;;;;;26.86;43.40;101572.47;5068947;27;45490;-48
2023/08/09 09:59:24;;;;;;;;;2.25;2.25;;;;;27.05;43.45;101570.47;5081416;27;47190;-49
2023/08/09 10:01:50;;;;;;;;;2.00;2.00;;;;;27.30;43.29;101576.00;5085448;27;45437;-50
2023/08/09 10:04:17;;;;;;;;;1.00;1.00;;;;;27.44;42.65;101569.88;5060768;28;45339;-52
2023/08/09 10:06:44;;;;;;;;;1.00;1.00;;;;;27.46;43.00;101565.13;5087029;27;45483;-50
2023/08/09 10:09:12;;;;;;;;;2.00;2.00;;;;;27.48;43.07;101573.13;5091038;27;45519;-50
2023/08/09 10:11:39;;;;;;;;;1.75;1.75;;;;;27.42;42.76;101573.81;5085839;27;45525;-52
2023/08/09 10:14:07;;;;;;;;;1.00;1.00;;;;;27.23;43.05;101579.41;5071432;27;45268;-51
2023/08/09 10:16:34;;;;;;;;;1.50;1.50;;;;;27.08;43.14;101576.47;5043958;28;45640;-50
2023/08/09 10:19:02;;;;;;;;;1.00;1.00;;;;;26.93;43.03;101572.66;5070124;27;50077;-53
2023/08/09 10:21:28;;;;;;;;;0.00;0.00;;;;;26.79;43.72;101570.56;5071227;27;45570;-51
2023/08/09 10:23:55;;;;;;;;;2.75;1.00;;;;;26.77;44.06;101570.75;5094563;27;67793;-50
2023/08/09 10:26:28;;;;;;;;;1.00;1.00;;;;;26.85;43.79;101576.22;5092979;27;45304;-49
2023/08/09 10:29:12;;;;;;;;;1.00;1.00;;;;;27.13;43.67;101578.72;5097968;27;46555;-51
2023/08/09 10:32:00;;;;;;;;;1.00;1.00;;;;;27.49;42.98;101581.16;5091087;27;45548;-51
2023/08/09 10:34:40;;;;;;;;;3.75;1.00;;;;;27.53;43.04;101584.41;5085143;27;45377;-52
2023/08/09 10:37:06;;;;;;;;;1.00;1.00;;;;;27.55;42.62;101579.66;5077170;27;45458;-50
2023/08/09 10:39:33;;;;;;;;;2.25;2.25;;;;;27.52;42.51;101582.69;5073869;27;46152;-52
2023/08/09 10:42:01;;;;;;;;;2.00;2.00;;;;;27.34;42.72;101586.41;5089513;27;45414;-52
2023/08/09 10:44:36;;;;;;;;;2.75;1.75;;;;;27.05;43.22;101586.84;5097354;27;45430;-50
2023/08/09 10:47:06;;;;;;;;;1.00;1.00;;;;;26.71;43.14;101588.59;5100799;27;45664;-51
2023/08/09 10:49:56;;;;;;;;;1.00;1.00;;;;;26.43;44.08;101587.97;5090574;27;46094;-51
2023/08/09 10:52:28;;;;;;;;;1.75;1.75;;;;;26.25;44.72;101591.59;5094660;27;45560;-53
2023/08/09 10:55:25;;;;;;;;;1.00;1.00;;;;;26.13;44.90;101589.31;5094962;27;45341;-53
2023/08/09 10:57:53;;;;;;;;;3.00;1.25;;;;;26.07;44.80;101594.41;5084849;27;45431;-54
2023/08/09 11:00:21;;;;;;;;;2.00;2.00;;;;;26.17;44.90;101596.16;5087285;27;45690;-52
2023/08/09 11:02:51;;;;;;;;;2.25;2.25;;;;;26.60;44.76;101597.06;5093992;27;45444;-54
2023/08/09 11:05:19;;;;;;;;;3.00;3.00;;;;;28.25;42.53;101602.81;5084134;27;45494;-49
2023/08/09 11:07:46;;;;;;;;;3.75;2.50;;;;;29.49;39.16;101597.69;5098099;27;45434;-50
2023/08/09 11:10:15;;;;;;;;;2.00;2.00;;;;;29.44;40.06;101600.09;5089372;27;46760;-51
2023/08/09 11:12:42;;;;;;;;;2.75;2.75;;;;;29.39;39.97;101597.06;5074767;27;45512;-51
2023/08/09 11:15:08;;;;;;;;;2.75;2.75;;;;;29.27;39.99;101598.50;5080461;27;45475;-51
2023/08/09 11:17:34;;;;;;;;;3.00;3.00;;;;;29.27;40.44;101591.16;5067700;27;45299;-49
2023/08/09 11:20:00;;;;;;;;;3.00;3.00;;;;;30.34;39.00;101589.38;5098566;27;46250;-54
2023/08/09 11:22:25;;;;;;;;;4.00;2.50;;;;;31.23;38.72;101598.56;5097096;27;45287;-53